Time;durP1;ratioP1;P1;durP2;ratioP2;P2;SDS_P1;SDS_P2;PMS_P1;PMS_P2;Temp;Humidity;BMP_temperature;BMP_pressure;BME280_temperature;BME280_humidity;BME280_pressure;Samples;Min_cycle;Max_cycle;Signal;HPM_P1;HPM_P2
2024/01/27 00:01:36;;;;;;;9.30;4.00;;;8.40;68.10;;;;;;4935945;29;20232;-81
2024/01/27 00:04:02;;;;;;;6.87;3.30;;;8.50;67.90;;;;;;4936674;29;20185;-82
2024/01/27 00:06:28;;;;;;;9.23;3.40;;;8.30;67.30;;;;;;4936981;29;20181;-81
2024/01/27 00:08:54;;;;;;;9.27;3.60;;;8.30;67.20;;;;;;4951680;28;20201;-83
2024/01/27 00:11:19;;;;;;;7.23;2.70;;;8.30;67.20;;;;;;4935975;29;20212;-82
2024/01/27 00:13:46;;;;;;;7.60;2.87;;;8.30;67.10;;;;;;4936330;29;20718;-83
2024/01/27 00:16:11;;;;;;;5.67;2.87;;;8.20;67.00;;;;;;4926178;29;20660;-83
2024/01/27 00:18:38;;;;;;;7.63;3.00;;;8.20;67.10;;;;;;4932303;28;20213;-82
2024/01/27 00:21:07;;;;;;;8.00;3.00;;;8.20;67.10;;;;;;4936492;29;20203;-83
2024/01/27 00:23:34;;;;;;;6.27;2.80;;;8.20;67.30;;;;;;4934405;29;20282;-81
2024/01/27 00:26:00;;;;;;;6.33;2.97;;;8.20;67.00;;;;;;4953096;28;20177;-82
2024/01/27 00:28:26;;;;;;;12.33;3.13;;;8.20;66.90;;;;;;4950387;29;20200;-83
2024/01/27 00:30:52;;;;;;;8.23;2.90;;;8.10;66.30;;;;;;4934575;29;20574;-83
2024/01/27 00:33:17;;;;;;;7.40;2.60;;;8.20;66.40;;;;;;4950287;28;20268;-82
2024/01/27 00:35:43;;;;;;;8.43;2.83;;;8.20;66.30;;;;;;4933410;29;20781;-82
2024/01/27 00:38:08;;;;;;;12.23;3.33;;;8.10;65.90;;;;;;4953513;28;20204;-83
2024/01/27 00:40:34;;;;;;;7.90;2.93;;;8.10;65.80;;;;;;4935941;28;20203;-83
2024/01/27 00:43:02;;;;;;;9.43;3.47;;;8.20;66.10;;;;;;4935781;29;20196;-83
2024/01/27 00:45:28;;;;;;;9.20;2.93;;;8.20;65.70;;;;;;4935672;29;20219;-82
2024/01/27 00:47:54;;;;;;;15.70;3.23;;;8.40;65.70;;;;;;4949515;29;20178;-82
2024/01/27 00:50:19;;;;;;;10.80;3.57;;;8.30;65.50;;;;;;4935767;29;20204;-82
2024/01/27 00:52:45;;;;;;;12.47;3.60;;;8.50;65.70;;;;;;4935260;28;20177;-82
2024/01/27 00:55:11;;;;;;;11.97;3.63;;;8.40;65.40;;;;;;4952797;29;20636;-82
2024/01/27 00:57:39;;;;;;;11.00;3.43;;;8.50;65.20;;;;;;4935025;29;20200;-83
2024/01/27 01:00:09;;;;;;;15.23;3.73;;;8.40;65.00;;;;;;4934983;29;20218;-83
2024/01/27 01:02:35;;;;;;;8.60;3.17;;;8.40;64.80;;;;;;4934102;29;20234;-82
2024/01/27 01:05:03;;;;;;;8.90;3.73;;;8.50;64.80;;;;;;4936566;29;20184;-82
2024/01/27 01:07:29;;;;;;;16.10;3.63;;;8.40;64.70;;;;;;4935115;28;20200;-81
2024/01/27 01:09:55;;;;;;;9.67;3.20;;;8.40;64.60;;;;;;4927624;29;20644;-82
2024/01/27 01:12:21;;;;;;;11.10;3.20;;;8.30;64.50;;;;;;4939207;29;20295;-82
2024/01/27 01:14:46;;;;;;;7.63;2.90;;;8.30;64.50;;;;;;4951307;29;20592;-82
2024/01/27 01:17:12;;;;;;;7.20;2.60;;;8.30;64.30;;;;;;4936470;29;20185;-80
2024/01/27 01:19:40;;;;;;;12.70;3.03;;;8.30;63.90;;;;;;4934298;29;20220;-82
2024/01/27 01:22:05;;;;;;;12.93;3.60;;;8.10;63.50;;;;;;4935205;29;20204;-82
2024/01/27 01:24:31;;;;;;;9.67;3.13;;;8.20;63.80;;;;;;4935068;29;20185;-81
2024/01/27 01:26:57;;;;;;;9.97;2.70;;;8.10;63.60;;;;;;4932667;29;20178;-81
2024/01/27 01:29:22;;;;;;;15.07;4.07;;;8.20;64.00;;;;;;4951999;28;20181;-82
2024/01/27 01:31:48;;;;;;;13.37;3.83;;;8.20;63.80;;;;;;4932016;29;20265;-82
2024/01/27 01:34:14;;;;;;;10.83;4.20;;;8.20;63.50;;;;;;4934934;29;20199;-82
2024/01/27 01:36:40;;;;;;;15.97;4.00;;;8.10;63.60;;;;;;4933752;29;20189;-82
2024/01/27 01:39:06;;;;;;;9.33;3.60;;;8.20;63.80;;;;;;4935037;29;20209;-82
2024/01/27 01:41:32;;;;;;;10.13;3.43;;;8.20;63.70;;;;;;4951790;28;20193;-81
2024/01/27 01:43:58;;;;;;;16.67;4.00;;;8.20;63.80;;;;;;4934322;29;20531;-82
2024/01/27 01:46:23;;;;;;;17.97;4.00;;;8.20;63.60;;;;;;4935102;29;20271;-83
2024/01/27 01:48:49;;;;;;;11.30;4.03;;;8.20;63.30;;;;;;4933951;29;20594;-82
2024/01/27 01:51:16;;;;;;;12.10;3.60;;;8.30;63.40;;;;;;4949094;28;20189;-81
2024/01/27 01:53:42;;;;;;;14.73;5.03;;;8.20;63.10;;;;;;4932212;29;20204;-82
2024/01/27 01:56:08;;;;;;;15.17;4.77;;;8.30;63.30;;;;;;4936641;29;20181;-82
2024/01/27 01:58:34;;;;;;;12.10;4.57;;;8.20;63.00;;;;;;4949348;28;20213;-81
2024/01/27 02:01:00;;;;;;;13.20;5.37;;;8.20;62.90;;;;;;4933910;29;20196;-81
2024/01/27 02:03:26;;;;;;;14.23;4.93;;;8.20;63.10;;;;;;4932276;29;20686;-82
2024/01/27 02:05:52;;;;;;;19.50;5.20;;;8.20;62.90;;;;;;4932755;28;20209;-81
2024/01/27 02:08:18;;;;;;;15.70;4.20;;;8.30;63.10;;;;;;4935787;29;20587;-82
2024/01/27 02:10:43;;;;;;;19.30;4.53;;;8.30;63.10;;;;;;4933753;29;20200;-83
2024/01/27 02:13:20;;;;;;;13.53;4.67;;;8.30;62.70;;;;;;4948704;29;20621;-82
2024/01/27 02:15:46;;;;;;;20.23;4.53;;;8.50;62.80;;;;;;4931291;29;20189;-83
2024/01/27 02:18:12;;;;;;;19.80;4.13;;;8.30;62.50;;;;;;4931903;29;20213;-82
2024/01/27 02:20:38;;;;;;;17.77;4.43;;;8.30;62.20;;;;;;4950296;28;20184;-82
2024/01/27 02:23:05;;;;;;;20.80;4.33;;;8.50;62.50;;;;;;4935780;29;20177;-81
2024/01/27 02:25:31;;;;;;;15.53;3.83;;;8.40;62.40;;;;;;4934688;28;20702;-80
2024/01/27 02:27:57;;;;;;;15.83;3.73;;;8.30;62.20;;;;;;4947969;29;20196;-83
2024/01/27 02:30:22;;;;;;;15.40;4.07;;;8.30;62.20;;;;;;4949185;28;20189;-81
2024/01/27 02:32:48;;;;;;;19.43;4.30;;;8.30;61.90;;;;;;4931508;29;20190;-81
2024/01/27 02:35:14;;;;;;;12.67;3.70;;;8.30;61.90;;;;;;4934972;29;20618;-83
2024/01/27 02:37:40;;;;;;;17.17;4.87;;;8.20;61.70;;;;;;4933518;29;20192;-81
2024/01/27 02:40:07;;;;;;;13.07;4.87;;;8.30;61.80;;;;;;4934285;29;20702;-82
2024/01/27 02:42:33;;;;;;;20.47;5.00;;;8.20;61.80;;;;;;4948586;29;20185;-81
2024/01/27 02:44:59;;;;;;;14.57;4.60;;;8.20;61.60;;;;;;4949584;29;20185;-82
2024/01/27 02:47:24;;;;;;;15.33;4.27;;;8.20;61.70;;;;;;4934333;29;20190;-83
2024/01/27 02:49:50;;;;;;;12.77;4.17;;;8.10;61.60;;;;;;4948506;29;20224;-81
2024/01/27 02:52:16;;;;;;;15.57;4.43;;;8.10;61.70;;;;;;4934359;29;20600;-82
2024/01/27 02:54:41;;;;;;;16.00;4.27;;;8.20;62.00;;;;;;4935298;29;20208;-82
2024/01/27 02:57:07;;;;;;;18.53;4.53;;;8.20;61.80;;;;;;4938152;29;20216;-81
2024/01/27 02:59:33;;;;;;;15.37;4.23;;;8.20;61.70;;;;;;4936596;29;20663;-81
2024/01/27 03:01:58;;;;;;;18.57;4.53;;;8.10;61.50;;;;;;4954726;28;20667;-82
2024/01/27 03:04:24;;;;;;;16.77;4.20;;;8.10;61.70;;;;;;4951710;29;20834;-82
2024/01/27 03:06:50;;;;;;;18.53;5.07;;;8.20;61.70;;;;;;4936707;29;20197;-82
2024/01/27 03:09:15;;;;;;;22.33;5.20;;;8.30;61.70;;;;;;4951905;28;20190;-82
2024/01/27 03:11:41;;;;;;;19.10;5.00;;;8.30;61.80;;;;;;4935478;29;20620;-82
2024/01/27 03:14:06;;;;;;;18.33;4.87;;;8.20;61.10;;;;;;4938485;29;20212;-81
2024/01/27 03:16:32;;;;;;;19.33;5.37;;;8.20;61.00;;;;;;4937541;29;20209;-81
2024/01/27 03:18:58;;;;;;;15.70;4.57;;;8.10;60.80;;;;;;4936588;29;20280;-82
2024/01/27 03:21:24;;;;;;;21.03;5.20;;;8.20;61.00;;;;;;4937540;28;20189;-81
2024/01/27 03:23:49;;;;;;;15.63;5.07;;;8.10;60.90;;;;;;4951296;29;20201;-81
2024/01/27 03:26:15;;;;;;;20.80;4.87;;;8.10;61.90;;;;;;4939291;28;20192;-81
2024/01/27 03:28:41;;;;;;;15.17;4.30;;;8.10;61.00;;;;;;4952745;28;20703;-82
2024/01/27 03:31:07;;;;;;;16.07;4.20;;;8.10;60.70;;;;;;4951425;29;20196;-82
2024/01/27 03:33:32;;;;;;;18.63;4.57;;;8.20;60.70;;;;;;4936783;28;20189;-82
2024/01/27 03:35:58;;;;;;;17.83;4.87;;;8.20;60.70;;;;;;4935799;29;20193;-82
2024/01/27 03:38:24;;;;;;;18.87;4.93;;;8.10;60.10;;;;;;4937651;29;20556;-83
2024/01/27 03:40:49;;;;;;;16.87;5.07;;;8.10;59.90;;;;;;4952757;28;20671;-82
2024/01/27 03:43:15;;;;;;;19.37;4.63;;;8.10;60.10;;;;;;4934174;29;20189;-82
2024/01/27 03:45:40;;;;;;;19.00;5.23;;;8.10;60.20;;;;;;4951492;28;20193;-81
2024/01/27 03:48:06;;;;;;;13.97;4.67;;;8.10;59.80;;;;;;4935761;29;20674;-81
2024/01/27 03:50:32;;;;;;;20.93;4.87;;;8.10;59.80;;;;;;4936270;28;20179;-82
2024/01/27 03:52:58;;;;;;;18.30;5.17;;;8.30;60.00;;;;;;4951982;29;20272;-82
2024/01/27 03:55:23;;;;;;;16.13;4.93;;;8.20;59.80;;;;;;4937109;29;20224;-83
2024/01/27 03:57:49;;;;;;;19.50;5.27;;;8.30;59.60;;;;;;4936310;29;20746;-83
2024/01/27 04:00:15;;;;;;;17.43;4.40;;;8.10;59.40;;;;;;4951056;28;20221;-81
2024/01/27 04:02:40;;;;;;;21.57;5.77;;;8.10;59.60;;;;;;4935237;28;20235;-82
2024/01/27 04:05:06;;;;;;;20.43;4.77;;;8.10;59.70;;;;;;4937924;29;20185;-82
2024/01/27 04:07:32;;;;;;;17.07;4.70;;;8.20;59.90;;;;;;4932216;29;20217;-82
2024/01/27 04:09:57;;;;;;;15.17;4.47;;;8.20;59.90;;;;;;4929821;29;20621;-82
2024/01/27 04:12:23;;;;;;;16.07;3.90;;;8.30;60.30;;;;;;4933644;29;20691;-82
2024/01/27 04:14:49;;;;;;;19.40;4.80;;;8.20;59.80;;;;;;4934031;29;20198;-82
2024/01/27 04:17:14;;;;;;;17.23;5.40;;;8.20;59.80;;;;;;4937054;28;20272;-82
2024/01/27 04:19:40;;;;;;;18.53;4.90;;;8.20;59.80;;;;;;4924232;29;20210;-82
2024/01/27 04:22:05;;;;;;;25.63;5.57;;;8.20;59.60;;;;;;4929256;29;20648;-81
2024/01/27 04:24:31;;;;;;;14.90;5.03;;;8.20;59.80;;;;;;4933479;29;20185;-82
2024/01/27 04:26:57;;;;;;;16.10;5.10;;;8.20;59.80;;;;;;4934826;29;20656;-80
2024/01/27 04:29:23;;;;;;;14.47;4.40;;;8.30;59.70;;;;;;4937328;28;20185;-82
2024/01/27 04:31:49;;;;;;;15.83;4.73;;;8.20;59.70;;;;;;4935523;29;20193;-82
2024/01/27 04:34:14;;;;;;;19.57;5.07;;;8.20;59.60;;;;;;4935977;28;20217;-83
2024/01/27 04:36:40;;;;;;;21.80;5.23;;;8.10;59.40;;;;;;4935967;29;20192;-82
2024/01/27 04:39:06;;;;;;;17.37;4.63;;;8.10;59.50;;;;;;4935284;29;20573;-82
2024/01/27 04:41:32;;;;;;;21.53;5.20;;;8.10;59.60;;;;;;4936178;28;20185;-82
2024/01/27 04:43:58;;;;;;;15.53;4.33;;;8.20;59.40;;;;;;4935430;29;20181;-82
2024/01/27 04:46:24;;;;;;;21.57;5.40;;;8.10;59.50;;;;;;4935788;29;20277;-82
2024/01/27 04:48:50;;;;;;;16.70;4.70;;;8.00;59.30;;;;;;4935035;29;20280;-82
2024/01/27 04:51:15;;;;;;;14.90;4.03;;;8.00;59.40;;;;;;4950589;28;20181;-81
2024/01/27 04:53:41;;;;;;;17.40;4.67;;;7.90;59.40;;;;;;4952668;28;20628;-82
2024/01/27 04:56:07;;;;;;;20.77;5.50;;;8.00;59.70;;;;;;4935705;28;20189;-82
2024/01/27 04:58:34;;;;;;;17.13;4.77;;;8.10;59.80;;;;;;4935214;29;20209;-82
2024/01/27 05:01:01;;;;;;;17.03;4.53;;;8.00;59.80;;;;;;4934598;29;20189;-81
2024/01/27 05:03:27;;;;;;;19.60;4.50;;;8.10;59.70;;;;;;4935981;29;20177;-83
2024/01/27 05:05:52;;;;;;;14.43;5.13;;;8.00;59.60;;;;;;4932706;29;20252;-85
2024/01/27 05:08:19;;;;;;;13.10;5.03;;;8.00;59.60;;;;;;4952884;29;20189;-84
2024/01/27 05:10:44;;;;;;;18.07;4.90;;;8.20;59.80;;;;;;4935377;29;20185;-83
2024/01/27 05:13:10;;;;;;;18.20;5.33;;;8.10;59.60;;;;;;4933980;29;20280;-85
2024/01/27 05:15:36;;;;;;;14.40;4.80;;;8.00;59.70;;;;;;4935281;29;20189;-84
2024/01/27 05:18:01;;;;;;;15.13;4.63;;;8.00;59.70;;;;;;4931667;29;20543;-84
2024/01/27 05:20:27;;;;;;;21.23;5.00;;;8.00;59.80;;;;;;4936336;29;20177;-83
2024/01/27 05:22:53;;;;;;;16.63;4.87;;;8.10;59.80;;;;;;4934061;29;20640;-84
2024/01/27 05:25:18;;;;;;;17.73;5.13;;;8.00;59.80;;;;;;4934749;29;20181;-84
2024/01/27 05:27:44;;;;;;;15.97;5.43;;;7.90;60.50;;;;;;4934962;29;20236;-84
2024/01/27 05:30:10;;;;;;;16.70;4.63;;;8.00;60.00;;;;;;4932421;29;20667;-83
2024/01/27 05:32:36;;;;;;;15.50;5.17;;;8.00;60.00;;;;;;4952260;29;20181;-84
2024/01/27 05:35:03;;;;;;;26.77;5.33;;;8.00;60.00;;;;;;4951168;29;20645;-85
2024/01/27 05:37:28;;;;;;;19.37;5.03;;;7.90;59.90;;;;;;4949220;29;20209;-83
2024/01/27 05:39:54;;;;;;;19.30;5.40;;;7.90;60.00;;;;;;4948271;29;20295;-84
2024/01/27 05:42:21;;;;;;;15.23;5.23;;;8.10;60.10;;;;;;4934679;29;20256;-85
2024/01/27 05:44:47;;;;;;;15.60;4.27;;;8.00;60.10;;;;;;4950946;28;20174;-85
2024/01/27 05:47:12;;;;;;;13.77;4.60;;;7.90;60.10;;;;;;4935972;29;20519;-84
2024/01/27 05:49:38;;;;;;;16.17;4.70;;;7.90;60.00;;;;;;4950624;28;20605;-82
2024/01/27 05:52:04;;;;;;;20.93;4.90;;;7.90;59.80;;;;;;4934000;29;20674;-84
2024/01/27 05:54:30;;;;;;;15.77;4.47;;;8.00;59.90;;;;;;4934631;29;20185;-83
2024/01/27 05:56:55;;;;;;;14.83;5.10;;;8.00;59.80;;;;;;4948752;29;20181;-85
2024/01/27 05:59:21;;;;;;;17.57;5.20;;;8.10;59.50;;;;;;4935638;29;20209;-83
2024/01/27 06:01:47;;;;;;;18.57;4.63;;;8.10;59.40;;;;;;4934702;29;20263;-83
2024/01/27 06:04:13;;;;;;;21.63;4.57;;;8.00;59.20;;;;;;4934615;29;20204;-85
2024/01/27 06:06:39;;;;;;;13.63;4.30;;;8.00;59.00;;;;;;4948938;28;20185;-86
2024/01/27 06:09:05;;;;;;;18.20;4.83;;;8.00;59.00;;;;;;4931985;29;20281;-85
2024/01/27 06:11:30;;;;;;;19.73;4.63;;;8.00;58.90;;;;;;4935153;29;20264;-84
2024/01/27 06:13:57;;;;;;;17.93;5.60;;;8.00;59.00;;;;;;4948549;28;20192;-84
2024/01/27 06:16:23;;;;;;;17.50;4.90;;;8.10;58.90;;;;;;4931891;29;20189;-83
2024/01/27 06:18:49;;;;;;;18.73;4.47;;;7.90;58.90;;;;;;4933416;29;20212;-83
2024/01/27 06:21:15;;;;;;;16.83;4.33;;;8.00;59.10;;;;;;4932870;29;20190;-83
2024/01/27 06:23:40;;;;;;;23.30;5.20;;;8.00;59.10;;;;;;4951549;29;20181;-83
2024/01/27 06:26:09;;;;;;;12.67;4.37;;;7.90;59.20;;;;;;4934340;29;20185;-82
2024/01/27 06:28:36;;;;;;;19.93;5.33;;;7.90;59.30;;;;;;4948884;28;20189;-82
2024/01/27 06:31:03;;;;;;;19.47;5.63;;;7.90;59.40;;;;;;4952193;28;20181;-82
2024/01/27 06:33:28;;;;;;;20.37;4.57;;;7.80;59.60;;;;;;4953962;29;20192;-83
2024/01/27 06:35:54;;;;;;;21.47;5.00;;;7.70;59.70;;;;;;4953918;28;20202;-83
2024/01/27 06:38:19;;;;;;;17.77;5.13;;;7.70;60.00;;;;;;4955260;28;20208;-82
2024/01/27 06:40:45;;;;;;;23.63;5.30;;;7.70;60.20;;;;;;4937820;28;20196;-81
2024/01/27 06:43:13;;;;;;;21.53;5.13;;;7.60;60.40;;;;;;4951440;28;20207;-81
2024/01/27 06:45:39;;;;;;;17.20;5.17;;;7.70;60.70;;;;;;4938075;29;20189;-80
2024/01/27 06:48:06;;;;;;;25.50;5.17;;;7.70;60.70;;;;;;4935225;29;20255;-81
2024/01/27 06:50:32;;;;;;;18.87;5.23;;;7.60;60.90;;;;;;4935146;29;20272;-82
2024/01/27 06:52:58;;;;;;;23.13;5.47;;;7.70;61.10;;;;;;4935863;29;20639;-82
2024/01/27 06:55:23;;;;;;;18.60;5.77;;;7.70;61.20;;;;;;4937816;29;20275;-81
2024/01/27 06:57:49;;;;;;;18.73;4.80;;;7.70;61.20;;;;;;4939084;29;20191;-82
2024/01/27 07:00:15;;;;;;;18.93;5.37;;;7.60;60.60;;;;;;4937465;29;20209;-82
2024/01/27 07:02:43;;;;;;;19.07;5.60;;;7.60;60.90;;;;;;4937706;29;20188;-81
2024/01/27 07:05:09;;;;;;;14.60;4.63;;;7.60;61.10;;;;;;4952683;29;20185;-83
2024/01/27 07:07:35;;;;;;;14.13;4.73;;;7.60;61.20;;;;;;4938171;29;20193;-82
2024/01/27 07:10:01;;;;;;;21.67;5.87;;;7.70;61.40;;;;;;4952589;28;20189;-83
2024/01/27 07:12:27;;;;;;;21.60;5.93;;;7.60;61.20;;;;;;4937883;29;20221;-80
2024/01/27 07:14:54;;;;;;;14.70;4.83;;;7.60;61.40;;;;;;4952706;28;20181;-81
2024/01/27 07:17:20;;;;;;;19.20;5.33;;;7.70;61.60;;;;;;4938373;29;20181;-83
2024/01/27 07:19:46;;;;;;;17.33;5.00;;;7.70;61.70;;;;;;4937365;29;20679;-82
2024/01/27 07:22:12;;;;;;;22.00;5.70;;;7.70;61.50;;;;;;4929216;29;20189;-81
2024/01/27 07:24:39;;;;;;;16.57;5.00;;;7.50;61.60;;;;;;4934082;29;20714;-84
2024/01/27 07:27:04;;;;;;;17.37;5.50;;;7.50;62.00;;;;;;4935348;29;20264;-83
2024/01/27 07:29:30;;;;;;;18.87;6.07;;;7.40;62.10;;;;;;4938681;29;20244;-83
2024/01/27 07:31:56;;;;;;;21.43;6.07;;;7.50;62.50;;;;;;4950850;28;20193;-81
2024/01/27 07:34:21;;;;;;;16.87;5.70;;;7.30;62.40;;;;;;4951469;29;20576;-81
2024/01/27 07:36:49;;;;;;;23.60;5.80;;;7.40;62.60;;;;;;4937440;29;20185;-81
2024/01/27 07:39:15;;;;;;;17.77;5.27;;;7.30;62.70;;;;;;4935837;29;20217;-83
2024/01/27 07:41:40;;;;;;;19.17;5.47;;;7.20;62.80;;;;;;4936026;29;20196;-83
2024/01/27 07:44:11;;;;;;;15.53;5.70;;;7.20;63.00;;;;;;4936831;29;20177;-82
2024/01/27 07:46:38;;;;;;;17.30;5.57;;;7.30;63.30;;;;;;4936986;28;20196;-84
2024/01/27 07:49:03;;;;;;;17.20;5.73;;;7.30;63.30;;;;;;4936718;29;20234;-83
2024/01/27 07:51:30;;;;;;;16.67;5.37;;;7.30;63.30;;;;;;4951267;28;20197;-83
2024/01/27 07:53:55;;;;;;;17.13;5.50;;;7.40;63.60;;;;;;4934401;28;20666;-83
2024/01/27 07:56:21;;;;;;;18.63;5.43;;;7.40;63.40;;;;;;4937849;29;20209;-82
2024/01/27 07:58:46;;;;;;;18.77;5.00;;;7.30;63.40;;;;;;4950734;29;20213;-81
2024/01/27 08:01:16;;;;;;;21.73;5.43;;;7.50;63.80;;;;;;4935902;29;20620;-82
2024/01/27 08:03:42;;;;;;;13.30;5.47;;;7.40;63.50;;;;;;4951089;28;20189;-83
2024/01/27 08:06:14;;;;;;;15.27;5.60;;;7.30;63.30;;;;;;4933312;29;20547;-83
2024/01/27 08:08:40;;;;;;;13.00;4.80;;;7.40;63.80;;;;;;4950631;28;20577;-83
2024/01/27 08:11:05;;;;;;;12.00;5.33;;;7.20;63.60;;;;;;4936172;29;20224;-83
2024/01/27 08:13:31;;;;;;;13.20;5.73;;;7.20;63.60;;;;;;4951803;28;20678;-81
2024/01/27 08:15:56;;;;;;;22.63;6.30;;;7.20;63.80;;;;;;4935741;28;20193;-81
2024/01/27 08:18:22;;;;;;;14.37;5.57;;;7.30;64.00;;;;;;4936539;29;20691;-81
2024/01/27 08:20:48;;;;;;;19.33;6.10;;;7.20;64.10;;;;;;4935667;29;20196;-83
2024/01/27 08:23:13;;;;;;;22.53;7.73;;;7.30;64.20;;;;;;4936008;29;20644;-81
2024/01/27 08:25:39;;;;;;;20.00;5.90;;;7.10;64.10;;;;;;4936414;29;20284;-83
2024/01/27 08:28:05;;;;;;;24.20;6.50;;;7.10;64.40;;;;;;4935361;28;20644;-83
2024/01/27 08:30:31;;;;;;;19.23;5.33;;;7.10;64.60;;;;;;4936373;29;20196;-81
2024/01/27 08:32:56;;;;;;;16.70;6.00;;;7.10;64.80;;;;;;4951904;29;20177;-83
2024/01/27 08:35:22;;;;;;;16.03;6.13;;;7.10;64.70;;;;;;4937022;29;20181;-81
2024/01/27 08:37:48;;;;;;;14.13;5.37;;;7.10;64.80;;;;;;4952196;28;20177;-82
2024/01/27 08:40:13;;;;;;;16.80;5.30;;;7.10;65.00;;;;;;4949739;29;20627;-81
2024/01/27 08:42:39;;;;;;;14.30;5.60;;;7.10;65.00;;;;;;4950287;29;20196;-83
2024/01/27 08:45:06;;;;;;;16.57;6.20;;;7.30;65.30;;;;;;4933780;29;20190;-82
2024/01/27 08:47:32;;;;;;;21.43;6.60;;;7.10;65.10;;;;;;4953550;28;20542;-82
2024/01/27 08:49:57;;;;;;;14.27;5.93;;;7.10;65.20;;;;;;4935171;29;20195;-81
2024/01/27 08:52:23;;;;;;;16.00;6.07;;;7.30;65.30;;;;;;4935379;29;20651;-82
2024/01/27 08:54:49;;;;;;;14.83;5.70;;;7.20;66.20;;;;;;4935661;29;20189;-83
2024/01/27 08:57:14;;;;;;;17.27;6.07;;;7.30;66.20;;;;;;4932213;29;20268;-82
2024/01/27 08:59:40;;;;;;;17.50;6.87;;;7.20;65.30;;;;;;4933088;29;20205;-83
2024/01/27 09:02:05;;;;;;;13.93;5.53;;;7.20;65.40;;;;;;4932532;29;20548;-81
2024/01/27 09:04:31;;;;;;;15.57;6.53;;;7.20;65.30;;;;;;4935405;29;20189;-82
2024/01/27 09:06:57;;;;;;;15.60;5.27;;;7.20;65.40;;;;;;4934580;29;20189;-83
2024/01/27 09:09:22;;;;;;;18.37;6.60;;;7.20;65.50;;;;;;4935734;29;20189;-84
2024/01/27 09:11:49;;;;;;;20.23;6.83;;;7.40;65.90;;;;;;4934707;29;20625;-83
2024/01/27 09:14:15;;;;;;;14.53;6.67;;;7.30;65.90;;;;;;4952852;29;20193;-82
2024/01/27 09:16:41;;;;;;;14.83;6.57;;;7.30;65.80;;;;;;4935283;29;20228;-83
2024/01/27 09:19:08;;;;;;;13.17;6.83;;;7.40;65.70;;;;;;4934581;29;20300;-82
2024/01/27 09:21:33;;;;;;;15.27;7.37;;;7.30;65.80;;;;;;4932453;29;20546;-82
2024/01/27 09:24:01;;;;;;;15.63;8.30;;;7.40;65.90;;;;;;4933308;29;20185;-81
2024/01/27 09:26:26;;;;;;;15.17;7.87;;;7.50;65.90;;;;;;4953396;29;20268;-81
2024/01/27 09:28:55;;;;;;;16.77;8.87;;;7.40;65.60;;;;;;4935105;29;20311;-82
2024/01/27 09:31:22;;;;;;;19.83;8.83;;;7.50;65.90;;;;;;4934380;29;20647;-83
2024/01/27 09:33:50;;;;;;;15.33;8.53;;;7.50;65.90;;;;;;4935047;29;20185;-81
2024/01/27 09:36:16;;;;;;;20.47;10.30;;;7.50;65.90;;;;;;4933175;29;20270;-81
2024/01/27 09:38:42;;;;;;;20.17;11.87;;;7.50;66.00;;;;;;4935442;29;20292;-82
2024/01/27 09:41:09;;;;;;;16.77;9.90;;;7.60;66.10;;;;;;4934860;29;20279;-82
2024/01/27 09:43:37;;;;;;;15.67;9.70;;;7.60;65.90;;;;;;4934659;29;20506;-82
2024/01/27 09:46:03;;;;;;;12.63;8.47;;;7.60;65.70;;;;;;4933931;29;20538;-82
2024/01/27 09:48:29;;;;;;;12.90;8.43;;;7.50;65.80;;;;;;4934619;29;20188;-81
2024/01/27 09:50:58;;;;;;;15.53;8.50;;;7.50;65.90;;;;;;4934317;29;20189;-81
2024/01/27 09:53:23;;;;;;;13.60;8.63;;;7.50;65.80;;;;;;4933621;29;20352;-83
2024/01/27 09:55:50;;;;;;;15.73;8.87;;;7.40;65.80;;;;;;4934796;29;20723;-82
2024/01/27 09:58:16;;;;;;;12.13;8.47;;;7.50;66.10;;;;;;4933751;29;20189;-83
2024/01/27 10:00:42;;;;;;;17.47;10.30;;;7.50;66.40;;;;;;4949204;28;20564;-83
2024/01/27 10:03:08;;;;;;;13.73;7.90;;;7.50;66.30;;;;;;4949023;28;20186;-83
2024/01/27 10:05:35;;;;;;;11.57;7.90;;;7.60;66.40;;;;;;4935214;29;20177;-83
2024/01/27 10:08:01;;;;;;;15.03;9.07;;;7.50;66.20;;;;;;4947924;28;20181;-82
2024/01/27 10:10:26;;;;;;;9.23;7.07;;;7.50;66.20;;;;;;4951875;28;20662;-83
2024/01/27 10:12:55;;;;;;;12.40;7.57;;;7.50;66.30;;;;;;4931972;29;20228;-83
2024/01/27 10:15:22;;;;;;;13.20;8.20;;;7.60;66.60;;;;;;4949522;28;20248;-81
2024/01/27 10:17:48;;;;;;;10.47;7.00;;;7.70;66.70;;;;;;4951771;28;20196;-82
2024/01/27 10:20:18;;;;;;;13.50;7.77;;;7.60;66.50;;;;;;4934429;29;20353;-83
2024/01/27 10:22:45;;;;;;;10.67;7.17;;;7.60;66.60;;;;;;4934602;29;20189;-83
2024/01/27 10:25:11;;;;;;;13.40;7.80;;;7.60;66.50;;;;;;4933847;29;20652;-83
2024/01/27 10:27:38;;;;;;;10.77;8.07;;;7.70;66.60;;;;;;4934909;29;20251;-84
2024/01/27 10:30:04;;;;;;;9.97;8.20;;;7.60;66.50;;;;;;4932406;29;20240;-83
2024/01/27 10:32:30;;;;;;;13.80;8.73;;;7.70;66.80;;;;;;4935021;29;20707;-83
2024/01/27 10:35:05;;;;;;;11.53;6.90;;;7.80;66.80;;;;;;4934727;29;20278;-82
2024/01/27 10:37:31;;;;;;;10.93;8.13;;;7.70;66.50;;;;;;4934269;29;20559;-83
2024/01/27 10:40:07;;;;;;;9.37;5.93;;;7.70;66.40;;;;;;4934433;29;20238;-82
2024/01/27 10:42:35;;;;;;;7.23;5.43;;;7.70;66.20;;;;;;4933784;29;20184;-83
2024/01/27 10:45:00;;;;;;;7.53;5.53;;;7.70;66.20;;;;;;4933106;29;20184;-83
2024/01/27 10:47:30;;;;;;;8.37;4.87;;;7.70;66.50;;;;;;4945810;28;20178;-82
2024/01/27 10:49:58;;;;;;;5.93;4.50;;;7.70;66.60;;;;;;4928103;29;20557;-82
2024/01/27 10:52:28;;;;;;;7.00;4.80;;;7.70;66.60;;;;;;4931065;29;20197;-82
2024/01/27 10:55:02;;;;;;;8.03;4.37;;;7.80;66.70;;;;;;4934459;28;20655;-82
2024/01/27 10:57:29;;;;;;;4.77;3.30;;;7.70;66.50;;;;;;4931340;29;20185;-83
2024/01/27 11:00:00;;;;;;;7.63;4.00;;;7.70;66.60;;;;;;4933686;29;20574;-82
2024/01/27 11:02:28;;;;;;;6.57;4.17;;;7.60;66.40;;;;;;4934669;29;20584;-83
2024/01/27 11:04:54;;;;;;;7.30;4.03;;;7.60;66.50;;;;;;4934017;29;20256;-82
2024/01/27 11:07:23;;;;;;;7.30;4.53;;;7.60;66.70;;;;;;4947429;29;20272;-83
2024/01/27 11:09:53;;;;;;;6.00;3.57;;;7.70;66.90;;;;;;4934333;29;20189;-83
2024/01/27 11:12:21;;;;;;;4.43;3.70;;;7.70;66.80;;;;;;4931715;29;20287;-83
2024/01/27 11:14:48;;;;;;;5.30;3.60;;;7.60;66.50;;;;;;4935471;28;20186;-83
2024/01/27 11:17:15;;;;;;;6.30;3.73;;;7.70;66.80;;;;;;4932483;29;20274;-82
2024/01/27 11:19:40;;;;;;;5.63;3.60;;;7.70;66.80;;;;;;4931277;29;20207;-82
2024/01/27 11:22:06;;;;;;;4.80;3.40;;;7.70;66.80;;;;;;4940976;29;20204;-84
2024/01/27 11:24:32;;;;;;;5.20;4.33;;;7.70;66.60;;;;;;4935220;29;20276;-83
2024/01/27 11:27:05;;;;;;;4.97;3.80;;;7.70;66.50;;;;;;4936739;29;20177;-83
2024/01/27 11:29:34;;;;;;;6.80;4.57;;;7.80;66.30;;;;;;4949601;29;20190;-83
2024/01/27 11:32:04;;;;;;;6.40;4.63;;;7.70;66.40;;;;;;4930926;29;20248;-82
2024/01/27 11:34:49;;;;;;;5.37;4.70;;;7.70;66.10;;;;;;4934781;29;20656;-83
2024/01/27 11:37:17;;;;;;;7.03;4.80;;;7.70;65.90;;;;;;4935953;29;20204;-82
2024/01/27 11:39:43;;;;;;;6.17;4.60;;;7.70;66.00;;;;;;4937216;29;20329;-82
2024/01/27 11:42:14;;;;;;;6.30;5.60;;;7.60;65.60;;;;;;4934946;29;20189;-82
2024/01/27 11:44:41;;;;;;;4.43;3.60;;;7.60;65.60;;;;;;4937477;28;20177;-83
2024/01/27 11:47:14;;;;;;;4.40;3.30;;;7.50;65.20;;;;;;4936237;29;20196;-83
2024/01/27 11:49:42;;;;;;;3.23;2.93;;;7.50;65.20;;;;;;4937049;29;20228;-82
2024/01/27 11:52:07;;;;;;;4.90;3.80;;;7.50;65.20;;;;;;4950552;28;20204;-83
2024/01/27 11:54:33;;;;;;;4.50;2.93;;;7.60;65.50;;;;;;4935588;29;20182;-82
2024/01/27 11:56:58;;;;;;;3.40;2.90;;;7.50;65.10;;;;;;4953523;28;20177;-82
2024/01/27 11:59:24;;;;;;;4.50;3.60;;;7.70;65.50;;;;;;4936418;29;20205;-82
2024/01/27 12:01:50;;;;;;;10.03;5.17;;;7.60;65.30;;;;;;4950840;28;20200;-82
2024/01/27 12:04:16;;;;;;;7.53;4.73;;;7.60;65.10;;;;;;4935834;29;20193;-83
2024/01/27 12:06:43;;;;;;;8.47;5.40;;;7.50;64.50;;;;;;4936932;29;20189;-83
2024/01/27 12:09:11;;;;;;;3.63;3.10;;;7.50;64.70;;;;;;4934521;29;20184;-83
2024/01/27 12:11:40;;;;;;;5.60;3.67;;;7.60;65.00;;;;;;4938410;28;20189;-83
2024/01/27 12:14:06;;;;;;;6.37;4.30;;;7.50;64.50;;;;;;4930383;29;20562;-84
2024/01/27 12:16:32;;;;;;;4.87;3.67;;;7.50;64.50;;;;;;4929753;29;20196;-83
2024/01/27 12:18:58;;;;;;;5.57;4.10;;;7.50;64.50;;;;;;4933990;29;20295;-83
2024/01/27 12:21:23;;;;;;;4.70;4.07;;;7.50;64.60;;;;;;4951873;29;20197;-82
2024/01/27 12:23:56;;;;;;;4.90;4.33;;;7.50;64.50;;;;;;4954977;28;20519;-82
2024/01/27 12:26:29;;;;;;;5.00;4.23;;;7.40;64.40;;;;;;4930333;29;20592;-82
2024/01/27 12:28:56;;;;;;;6.30;4.47;;;7.50;64.70;;;;;;4929790;29;20202;-83
2024/01/27 12:31:23;;;;;;;4.13;3.73;;;7.50;64.90;;;;;;4942263;29;20185;-82
2024/01/27 12:33:52;;;;;;;3.90;3.50;;;7.50;64.90;;;;;;4950432;29;20692;-84
2024/01/27 12:36:22;;;;;;;4.43;3.83;;;7.50;64.60;;;;;;4934274;29;20195;-83
2024/01/27 12:39:08;;;;;;;4.63;4.23;;;7.50;64.60;;;;;;4936840;29;20686;-82
2024/01/27 12:41:34;;;;;;;4.20;3.40;;;7.60;64.80;;;;;;4935139;29;20180;-82
2024/01/27 12:44:01;;;;;;;3.63;3.17;;;7.60;64.70;;;;;;4935429;28;20193;-83
2024/01/27 12:46:27;;;;;;;3.77;3.37;;;7.60;64.30;;;;;;4935123;29;20198;-83